Time;durP1;ratioP1;P1;durP2;ratioP2;P2;SDS_P1;SDS_P2;PMS_P1;PMS_P2;Temp;Humidity;BMP_temperature;BMP_pressure;BME280_temperature;BME280_humidity;BME280_pressure;Samples;Min_cycle;Max_cycle;Signal;HPM_P1;HPM_P2
2022/07/17 00:01:31;;;;;;;5.68;3.67;;;;;;;;;;4364893;32;20080;-66
2022/07/17 00:03:59;;;;;;;9.60;4.35;;;;;;;;;;4390219;32;20145;-66
2022/07/17 00:06:26;;;;;;;7.10;4.45;;;;;;;;;;4377171;32;20144;-65
2022/07/17 00:08:53;;;;;;;7.72;4.43;;;;;;;;;;4364755;32;20074;-65
2022/07/17 00:11:19;;;;;;;9.60;4.70;;;;;;;;;;4390152;32;20090;-66
2022/07/17 00:13:46;;;;;;;8.07;4.55;;;;;;;;;;4390259;32;20230;-66
2022/07/17 00:16:13;;;;;;;6.10;4.80;;;;;;;;;;4365042;32;20086;-66
2022/07/17 00:18:40;;;;;;;10.15;5.75;;;;;;;;;;4377486;32;20526;-66
2022/07/17 00:21:07;;;;;;;8.18;5.12;;;;;;;;;;4389710;32;20507;-66
2022/07/17 00:23:33;;;;;;;7.60;4.82;;;;;;;;;;4377366;32;20086;-66
2022/07/17 00:26:00;;;;;;;11.50;5.18;;;;;;;;;;4389878;32;20139;-66
2022/07/17 00:28:27;;;;;;;6.95;4.68;;;;;;;;;;4377500;32;20567;-65
2022/07/17 00:30:54;;;;;;;6.30;4.95;;;;;;;;;;4391210;32;20076;-66
2022/07/17 00:33:21;;;;;;;7.53;5.20;;;;;;;;;;4389734;32;20078;-66
2022/07/17 00:35:47;;;;;;;9.38;5.07;;;;;;;;;;4377545;32;20074;-66
2022/07/17 00:38:14;;;;;;;8.02;5.28;;;;;;;;;;4391381;32;20069;-66
2022/07/17 00:40:41;;;;;;;8.63;5.18;;;;;;;;;;4364678;32;20097;-66
2022/07/17 00:43:08;;;;;;;7.03;5.07;;;;;;;;;;4389951;32;20089;-66
2022/07/17 00:45:34;;;;;;;5.72;5.05;;;;;;;;;;4377219;32;20083;-66
2022/07/17 00:48:04;;;;;;;7.37;4.78;;;;;;;;;;4389703;32;20540;-66
2022/07/17 00:50:33;;;;;;;7.47;4.80;;;;;;;;;;4376985;32;20548;-66
2022/07/17 00:53:01;;;;;;;9.13;4.40;;;;;;;;;;4377063;32;20078;-66
2022/07/17 00:55:28;;;;;;;5.68;5.00;;;;;;;;;;4389748;32;20073;-66
2022/07/17 00:57:56;;;;;;;7.93;5.30;;;;;;;;;;4377673;32;20164;-66
2022/07/17 01:00:23;;;;;;;5.57;4.90;;;;;;;;;;4365192;32;20062;-66
2022/07/17 01:02:53;;;;;;;6.12;4.82;;;;;;;;;;4391259;32;20169;-65
2022/07/17 01:05:20;;;;;;;7.87;4.65;;;;;;;;;;4380397;32;20162;-66
2022/07/17 01:07:48;;;;;;;6.75;4.85;;;;;;;;;;4392987;32;20101;-65
2022/07/17 01:10:18;;;;;;;6.37;4.60;;;;;;;;;;4367883;32;20162;-66
2022/07/17 01:12:49;;;;;;;6.43;4.12;;;;;;;;;;4393063;32;20508;-66
2022/07/17 01:15:16;;;;;;;5.10;4.22;;;;;;;;;;4367866;32;20085;-66
2022/07/17 01:17:43;;;;;;;6.03;4.45;;;;;;;;;;4379896;32;20154;-65
2022/07/17 01:20:11;;;;;;;5.10;4.37;;;;;;;;;;4380881;32;20078;-66
2022/07/17 01:22:49;;;;;;;8.50;4.75;;;;;;;;;;4392347;32;20097;-66
2022/07/17 01:25:18;;;;;;;6.93;5.00;;;;;;;;;;4393892;32;20089;-66
2022/07/17 01:27:44;;;;;;;6.82;5.03;;;;;;;;;;4379797;32;20081;-66
2022/07/17 01:30:12;;;;;;;7.15;5.12;;;;;;;;;;4367100;32;20089;-66
2022/07/17 01:32:40;;;;;;;6.22;5.00;;;;;;;;;;4379826;32;20137;-66
2022/07/17 01:35:08;;;;;;;6.72;4.80;;;;;;;;;;4367342;32;20074;-66
2022/07/17 01:37:36;;;;;;;6.30;4.90;;;;;;;;;;4379658;32;20077;-66
2022/07/17 01:40:04;;;;;;;6.75;5.40;;;;;;;;;;4366961;32;20085;-66
2022/07/17 01:42:31;;;;;;;6.00;5.28;;;;;;;;;;4379680;32;20074;-66
2022/07/17 01:44:57;;;;;;;8.45;5.60;;;;;;;;;;4392665;32;20484;-66
2022/07/17 01:47:24;;;;;;;7.65;5.20;;;;;;;;;;4379249;32;20463;-65
2022/07/17 01:49:54;;;;;;;8.75;5.05;;;;;;;;;;4367362;32;20084;-66
2022/07/17 01:52:21;;;;;;;6.25;5.32;;;;;;;;;;4393638;32;20101;-65
2022/07/17 01:54:48;;;;;;;6.72;5.03;;;;;;;;;;4392611;32;20092;-65
2022/07/17 01:57:15;;;;;;;8.48;5.45;;;;;;;;;;4379383;32;20154;-65
2022/07/17 01:59:42;;;;;;;8.32;5.30;;;;;;;;;;4379633;32;20116;-66
2022/07/17 02:02:09;;;;;;;6.18;5.18;;;;;;;;;;4366674;32;20069;-66
2022/07/17 02:04:38;;;;;;;6.45;5.37;;;;;;;;;;4379433;32;20085;-66
2022/07/17 02:07:05;;;;;;;6.87;5.10;;;;;;;;;;4392397;32;20077;-66
2022/07/17 02:09:32;;;;;;;6.68;4.90;;;;;;;;;;4366923;32;20078;-66
2022/07/17 02:11:59;;;;;;;6.22;4.93;;;;;;;;;;4380196;32;20069;-65
2022/07/17 02:14:26;;;;;;;8.35;5.12;;;;;;;;;;4378353;32;20495;-66
2022/07/17 02:16:53;;;;;;;5.78;4.90;;;;;;;;;;4391735;32;20243;-66
2022/07/17 02:19:20;;;;;;;5.75;4.80;;;;;;;;;;4378918;32;20154;-66
2022/07/17 02:21:47;;;;;;;7.53;5.25;;;;;;;;;;4366696;32;20081;-66
2022/07/17 02:24:13;;;;;;;7.28;5.05;;;;;;;;;;4379242;32;20105;-66
2022/07/17 02:26:40;;;;;;;7.03;4.57;;;;;;;;;;4391595;32;20147;-67
2022/07/17 02:29:07;;;;;;;8.65;4.80;;;;;;;;;;4379155;32;20078;-66
2022/07/17 02:31:34;;;;;;;6.95;5.05;;;;;;;;;;4393162;32;20071;-66
2022/07/17 02:34:01;;;;;;;6.45;5.00;;;;;;;;;;4366370;32;20167;-66
2022/07/17 02:36:28;;;;;;;6.32;4.75;;;;;;;;;;4378802;32;20440;-66
2022/07/17 02:38:55;;;;;;;6.50;4.97;;;;;;;;;;4366852;32;20106;-66
2022/07/17 02:41:22;;;;;;;7.25;5.12;;;;;;;;;;4391210;32;20186;-66
2022/07/17 02:43:49;;;;;;;5.97;4.47;;;;;;;;;;4366099;32;20077;-66
2022/07/17 02:46:16;;;;;;;7.80;4.87;;;;;;;;;;4378695;32;20084;-64
2022/07/17 02:48:43;;;;;;;8.32;4.55;;;;;;;;;;4391347;32;20076;-66
2022/07/17 02:51:10;;;;;;;7.05;4.78;;;;;;;;;;4391366;32;20070;-65
2022/07/17 02:53:37;;;;;;;8.25;5.28;;;;;;;;;;4378788;32;20504;-66
2022/07/17 02:56:04;;;;;;;7.05;4.80;;;;;;;;;;4366087;32;20146;-66
2022/07/17 02:58:31;;;;;;;8.57;5.32;;;;;;;;;;4378424;32;20515;-66
2022/07/17 03:00:58;;;;;;;7.70;5.43;;;;;;;;;;4365859;32;20089;-65
2022/07/17 03:03:25;;;;;;;6.32;4.72;;;;;;;;;;4378438;32;20062;-66
2022/07/17 03:05:51;;;;;;;8.45;4.95;;;;;;;;;;4391548;32;20500;-65
2022/07/17 03:08:18;;;;;;;8.35;4.95;;;;;;;;;;4378533;32;20519;-66
2022/07/17 03:10:45;;;;;;;7.70;4.80;;;;;;;;;;4365726;32;20062;-66
2022/07/17 03:13:12;;;;;;;6.82;4.90;;;;;;;;;;4377999;32;20078;-66
2022/07/17 03:15:39;;;;;;;6.55;4.87;;;;;;;;;;4378377;32;20080;-66
2022/07/17 03:18:05;;;;;;;11.57;5.00;;;;;;;;;;4390856;32;20575;-66
2022/07/17 03:20:32;;;;;;;8.52;5.00;;;;;;;;;;4378221;32;20069;-65
2022/07/17 03:22:59;;;;;;;6.40;4.43;;;;;;;;;;4378408;32;20447;-65
2022/07/17 03:25:26;;;;;;;6.47;4.50;;;;;;;;;;4377540;32;20077;-65
2022/07/17 03:27:52;;;;;;;5.15;4.45;;;;;;;;;;4378064;32;20088;-66
2022/07/17 03:30:19;;;;;;;5.05;4.00;;;;;;;;;;4365953;32;20078;-65
2022/07/17 03:32:46;;;;;;;5.97;4.10;;;;;;;;;;4377902;32;20085;-66
2022/07/17 03:35:13;;;;;;;5.18;4.40;;;;;;;;;;4382046;32;20589;-65
2022/07/17 03:37:40;;;;;;;5.82;4.20;;;;;;;;;;4384102;32;20487;-66
2022/07/17 03:40:08;;;;;;;4.80;3.75;;;;;;;;;;4390529;32;20077;-65
2022/07/17 03:42:34;;;;;;;6.12;3.83;;;;;;;;;;4378156;32;20433;-66
2022/07/17 03:45:01;;;;;;;4.22;3.70;;;;;;;;;;4392355;32;20546;-66
2022/07/17 03:47:28;;;;;;;7.45;4.00;;;;;;;;;;4367135;32;20441;-66
2022/07/17 03:49:55;;;;;;;5.18;4.18;;;;;;;;;;4397760;32;20069;-65
2022/07/17 03:52:22;;;;;;;5.22;4.20;;;;;;;;;;4396220;32;20153;-66
2022/07/17 03:54:48;;;;;;;4.05;3.53;;;;;;;;;;4385964;32;20075;-66
2022/07/17 03:57:15;;;;;;;6.70;3.87;;;;;;;;;;4371953;32;20081;-66
2022/07/17 03:59:42;;;;;;;4.97;4.25;;;;;;;;;;4384603;32;20073;-65
2022/07/17 04:02:09;;;;;;;5.22;4.20;;;;;;;;;;4384656;32;20074;-66
2022/07/17 04:04:36;;;;;;;5.40;4.10;;;;;;;;;;4374007;32;20077;-66
2022/07/17 04:07:03;;;;;;;6.57;4.22;;;;;;;;;;4397988;32;20527;-66
2022/07/17 04:09:30;;;;;;;7.05;3.97;;;;;;;;;;4373521;32;20077;-65
2022/07/17 04:11:57;;;;;;;6.12;4.00;;;;;;;;;;4374771;32;20089;-66
2022/07/17 04:14:23;;;;;;;4.80;3.83;;;;;;;;;;4399371;32;20078;-66
2022/07/17 04:16:50;;;;;;;4.68;3.83;;;;;;;;;;4387797;32;20074;-66
2022/07/17 04:19:17;;;;;;;4.70;3.55;;;;;;;;;;4393683;32;20105;-66
2022/07/17 04:21:44;;;;;;;3.92;3.53;;;;;;;;;;4382474;32;20086;-66
2022/07/17 04:24:11;;;;;;;5.47;4.05;;;;;;;;;;4395059;32;20077;-66
2022/07/17 04:26:38;;;;;;;5.55;3.92;;;;;;;;;;4386587;32;20089;-65
2022/07/17 04:29:04;;;;;;;6.15;3.70;;;;;;;;;;4401749;32;20085;-66
2022/07/17 04:31:31;;;;;;;5.07;3.97;;;;;;;;;;4377175;32;20183;-66
2022/07/17 04:33:58;;;;;;;5.62;4.28;;;;;;;;;;4381788;32;20437;-65
2022/07/17 04:36:25;;;;;;;5.35;3.50;;;;;;;;;;4393408;32;20085;-66
2022/07/17 04:38:52;;;;;;;4.70;3.75;;;;;;;;;;4369922;32;20161;-65
2022/07/17 04:41:19;;;;;;;4.72;3.33;;;;;;;;;;4393750;32;20448;-68
2022/07/17 04:43:45;;;;;;;4.43;3.70;;;;;;;;;;4391001;32;20152;-66
2022/07/17 04:46:12;;;;;;;5.93;3.80;;;;;;;;;;4365483;32;20067;-66
2022/07/17 04:48:39;;;;;;;7.10;3.83;;;;;;;;;;4377766;32;20139;-66
2022/07/17 04:51:06;;;;;;;5.07;3.90;;;;;;;;;;4365515;32;20078;-66
2022/07/17 04:53:33;;;;;;;4.95;3.75;;;;;;;;;;4377854;32;20069;-65
2022/07/17 04:56:00;;;;;;;4.87;3.33;;;;;;;;;;4390078;32;20081;-66
2022/07/17 04:58:27;;;;;;;3.90;3.40;;;;;;;;;;4391198;32;20074;-66
2022/07/17 05:00:54;;;;;;;5.05;2.95;;;;;;;;;;4389863;32;20078;-66
2022/07/17 05:03:20;;;;;;;4.70;3.33;;;;;;;;;;4365369;32;20496;-66
2022/07/17 05:05:47;;;;;;;5.22;3.40;;;;;;;;;;4365328;32;20070;-66
2022/07/17 05:08:14;;;;;;;4.45;3.40;;;;;;;;;;4377504;32;20128;-66
2022/07/17 05:10:41;;;;;;;6.93;3.85;;;;;;;;;;4391480;32;20078;-67
2022/07/17 05:13:08;;;;;;;4.87;3.05;;;;;;;;;;4365652;32;20104;-66
2022/07/17 05:15:35;;;;;;;4.15;3.58;;;;;;;;;;4377125;32;20085;-66
2022/07/17 05:18:02;;;;;;;4.00;3.00;;;;;;;;;;4391414;32;20084;-66
2022/07/17 05:20:29;;;;;;;4.90;3.12;;;;;;;;;;4377592;32;20090;-66
2022/07/17 05:22:56;;;;;;;4.05;3.37;;;;;;;;;;4378605;32;20081;-66
2022/07/17 05:25:23;;;;;;;5.12;3.30;;;;;;;;;;4390285;32;20222;-66
2022/07/17 05:27:50;;;;;;;6.78;3.53;;;;;;;;;;4378866;32;20170;-66
2022/07/17 05:30:17;;;;;;;5.43;3.60;;;;;;;;;;4368368;32;20074;-66
2022/07/17 05:32:44;;;;;;;4.35;3.20;;;;;;;;;;4371565;32;20583;-66
2022/07/17 05:35:10;;;;;;;5.28;3.40;;;;;;;;;;4379437;32;20090;-66
2022/07/17 05:37:37;;;;;;;5.18;3.58;;;;;;;;;;4377830;32;20070;-67
2022/07/17 05:40:05;;;;;;;3.45;3.15;;;;;;;;;;4365110;32;20181;-66
2022/07/17 05:42:32;;;;;;;3.75;3.15;;;;;;;;;;4390366;32;20189;-66
2022/07/17 05:44:59;;;;;;;7.20;3.92;;;;;;;;;;4391196;32;20093;-67
2022/07/17 05:47:26;;;;;;;5.18;3.70;;;;;;;;;;4382087;32;20158;-66
2022/07/17 05:49:53;;;;;;;6.15;4.25;;;;;;;;;;4385923;32;20079;-66
2022/07/17 05:52:19;;;;;;;6.32;4.25;;;;;;;;;;4372492;32;20176;-67
2022/07/17 05:54:46;;;;;;;5.57;4.72;;;;;;;;;;4395702;32;20069;-66
2022/07/17 05:57:13;;;;;;;5.30;4.60;;;;;;;;;;4383055;32;20081;-66
2022/07/17 05:59:40;;;;;;;6.97;4.85;;;;;;;;;;4397016;32;20094;-66
2022/07/17 06:02:07;;;;;;;6.95;4.78;;;;;;;;;;4370493;32;20157;-66
2022/07/17 06:04:34;;;;;;;5.97;4.72;;;;;;;;;;4394242;32;20089;-66
2022/07/17 06:07:01;;;;;;;7.37;6.22;;;;;;;;;;4392684;32;20081;-66
2022/07/17 06:09:27;;;;;;;7.70;6.72;;;;;;;;;;4391731;32;20070;-66
2022/07/17 06:11:54;;;;;;;8.38;7.03;;;;;;;;;;4379881;32;20183;-66
2022/07/17 06:14:21;;;;;;;7.57;6.87;;;;;;;;;;4393223;32;20178;-65
2022/07/17 06:16:48;;;;;;;9.98;6.10;;;;;;;;;;4366584;32;20070;-65
2022/07/17 06:19:15;;;;;;;7.75;5.90;;;;;;;;;;4378983;32;20142;-66
2022/07/17 06:21:41;;;;;;;8.90;6.00;;;;;;;;;;4393387;32;20177;-67
2022/07/17 06:24:08;;;;;;;6.72;6.03;;;;;;;;;;4367249;32;20093;-66
2022/07/17 06:26:35;;;;;;;7.00;5.60;;;;;;;;;;4366963;32;20124;-66
2022/07/17 06:29:02;;;;;;;7.65;5.87;;;;;;;;;;4392176;32;20149;-66
2022/07/17 06:31:29;;;;;;;10.90;5.93;;;;;;;;;;4378927;32;20579;-66
2022/07/17 06:33:56;;;;;;;7.10;5.30;;;;;;;;;;4391253;32;20085;-66
2022/07/17 06:36:23;;;;;;;5.85;5.25;;;;;;;;;;4366193;32;20607;-66
2022/07/17 06:38:50;;;;;;;6.60;5.22;;;;;;;;;;4391515;32;20069;-66
2022/07/17 06:41:16;;;;;;;6.15;5.30;;;;;;;;;;4391024;32;20471;-66
2022/07/17 06:43:43;;;;;;;8.40;5.80;;;;;;;;;;4391438;32;20076;-66
2022/07/17 06:46:10;;;;;;;6.47;5.87;;;;;;;;;;4393058;32;20077;-66
2022/07/17 06:48:37;;;;;;;5.72;5.20;;;;;;;;;;4366112;32;20082;-66
2022/07/17 06:51:04;;;;;;;6.57;5.28;;;;;;;;;;4366357;32;20504;-66
2022/07/17 06:53:30;;;;;;;8.27;5.47;;;;;;;;;;4378775;32;20070;-65
2022/07/17 06:55:57;;;;;;;9.50;4.62;;;;;;;;;;4391143;32;20100;-65
2022/07/17 06:58:24;;;;;;;5.93;4.65;;;;;;;;;;4391888;32;20157;-66
2022/07/17 07:00:51;;;;;;;5.72;4.32;;;;;;;;;;4378813;32;20588;-66
2022/07/17 07:03:18;;;;;;;7.05;4.50;;;;;;;;;;4365814;32;20163;-66
2022/07/17 07:05:45;;;;;;;6.00;4.70;;;;;;;;;;4378397;32;20081;-66
2022/07/17 07:08:11;;;;;;;6.32;4.32;;;;;;;;;;4393124;32;20078;-66
2022/07/17 07:10:38;;;;;;;6.80;4.75;;;;;;;;;;4365653;32;20080;-65
2022/07/17 07:13:05;;;;;;;5.72;4.18;;;;;;;;;;4366014;32;20077;-65
2022/07/17 07:15:32;;;;;;;4.93;4.30;;;;;;;;;;4378262;32;20157;-66
2022/07/17 07:17:59;;;;;;;6.78;4.20;;;;;;;;;;4366121;32;20141;-66
2022/07/17 07:20:26;;;;;;;6.12;4.37;;;;;;;;;;4378516;32;20495;-66
2022/07/17 07:22:52;;;;;;;4.62;4.12;;;;;;;;;;4392637;32;20088;-66
2022/07/17 07:25:21;;;;;;;4.43;3.90;;;;;;;;;;4365846;32;20070;-66
2022/07/17 07:27:48;;;;;;;4.68;4.10;;;;;;;;;;4378240;32;20534;-66
2022/07/17 07:30:15;;;;;;;5.18;4.20;;;;;;;;;;4365819;32;20460;-66
2022/07/17 07:32:42;;;;;;;5.85;4.10;;;;;;;;;;4378383;32;20069;-66
2022/07/17 07:35:09;;;;;;;5.82;4.15;;;;;;;;;;4365840;32;20089;-66
2022/07/17 07:37:36;;;;;;;5.32;4.25;;;;;;;;;;4390691;32;20085;-67
2022/07/17 07:40:04;;;;;;;6.22;4.00;;;;;;;;;;4377839;32;20076;-66
2022/07/17 07:42:30;;;;;;;6.60;3.92;;;;;;;;;;4377879;32;20073;-65
2022/07/17 07:45:00;;;;;;;4.85;4.00;;;;;;;;;;4390348;32;20089;-66
2022/07/17 07:47:27;;;;;;;4.50;3.37;;;;;;;;;;4390464;32;20085;-66
2022/07/17 07:49:54;;;;;;;5.20;3.75;;;;;;;;;;4377704;32;20081;-65
2022/07/17 07:52:21;;;;;;;4.82;3.20;;;;;;;;;;4365323;32;20097;-66
2022/07/17 07:54:48;;;;;;;4.57;3.42;;;;;;;;;;4377788;32;20150;-66
2022/07/17 07:57:15;;;;;;;5.00;3.25;;;;;;;;;;4365229;32;20529;-64
2022/07/17 07:59:42;;;;;;;3.85;3.28;;;;;;;;;;4377498;32;20098;-66
2022/07/17 08:02:08;;;;;;;4.47;2.87;;;;;;;;;;4377774;32;20081;-65
2022/07/17 08:04:35;;;;;;;4.12;3.00;;;;;;;;;;4365117;32;20158;-66
2022/07/17 08:07:02;;;;;;;3.80;2.90;;;;;;;;;;4365397;32;20511;-66
2022/07/17 08:09:29;;;;;;;3.65;3.28;;;;;;;;;;4390432;32;20081;-66
2022/07/17 08:11:56;;;;;;;3.62;3.22;;;;;;;;;;4364538;32;20519;-66
2022/07/17 08:14:22;;;;;;;3.50;3.08;;;;;;;;;;4377922;32;20088;-66
2022/07/17 08:16:49;;;;;;;3.17;2.75;;;;;;;;;;4390654;32;20151;-66
2022/07/17 08:19:16;;;;;;;5.95;3.03;;;;;;;;;;4365547;32;20085;-66
2022/07/17 08:21:44;;;;;;;5.32;3.00;;;;;;;;;;4365316;32;20174;-66
2022/07/17 08:24:11;;;;;;;3.75;3.00;;;;;;;;;;4390530;32;20170;-65
2022/07/17 08:26:38;;;;;;;5.37;2.90;;;;;;;;;;4364592;32;20145;-66
2022/07/17 08:29:05;;;;;;;5.10;2.95;;;;;;;;;;4377388;32;20108;-65
2022/07/17 08:31:32;;;;;;;4.80;3.00;;;;;;;;;;4365059;32;20230;-66
2022/07/17 08:33:59;;;;;;;5.15;3.10;;;;;;;;;;4365132;32;20097;-66
2022/07/17 08:36:26;;;;;;;7.40;3.28;;;;;;;;;;4389733;32;20513;-66
2022/07/17 08:38:52;;;;;;;3.45;3.00;;;;;;;;;;4389844;32;20507;-66
2022/07/17 08:41:22;;;;;;;3.95;3.17;;;;;;;;;;4377803;32;20421;-66
2022/07/17 08:43:50;;;;;;;5.28;3.28;;;;;;;;;;4390685;32;20089;-66
2022/07/17 08:46:18;;;;;;;3.72;3.05;;;;;;;;;;4378081;32;20066;-66
2022/07/17 08:48:46;;;;;;;3.45;2.65;;;;;;;;;;4377287;32;20177;-67
2022/07/17 08:51:16;;;;;;;4.97;3.00;;;;;;;;;;4377330;32;20070;-65
2022/07/17 08:53:43;;;;;;;4.30;3.10;;;;;;;;;;4377247;32;20507;-66
2022/07/17 08:56:10;;;;;;;3.53;3.00;;;;;;;;;;4391571;32;20085;-66
2022/07/17 08:58:37;;;;;;;4.32;3.28;;;;;;;;;;4376815;32;20456;-66
2022/07/17 09:01:03;;;;;;;4.90;2.97;;;;;;;;;;4377803;32;20497;-66
2022/07/17 09:03:30;;;;;;;6.37;3.33;;;;;;;;;;4364754;32;20082;-66
2022/07/17 09:05:57;;;;;;;3.40;2.92;;;;;;;;;;4377175;32;20080;-66
2022/07/17 09:08:25;;;;;;;4.80;3.30;;;;;;;;;;4376826;32;20526;-65
2022/07/17 09:10:53;;;;;;;3.87;3.10;;;;;;;;;;4389737;32;20082;-66
2022/07/17 09:13:25;;;;;;;3.97;3.12;;;;;;;;;;4377292;32;20105;-66
2022/07/17 09:16:12;;;;;;;3.72;3.28;;;;;;;;;;4389586;32;20226;-65
2022/07/17 09:18:47;;;;;;;4.35;2.80;;;;;;;;;;4391545;32;20081;-65
2022/07/17 09:21:25;;;;;;;5.95;3.55;;;;;;;;;;4377470;32;20085;-66
2022/07/17 09:24:03;;;;;;;3.90;3.05;;;;;;;;;;4377563;32;20437;-65
2022/07/17 09:26:32;;;;;;;4.07;2.97;;;;;;;;;;4392708;32;20162;-66
2022/07/17 09:29:00;;;;;;;7.25;3.08;;;;;;;;;;4379917;32;20169;-66
2022/07/17 09:31:29;;;;;;;5.07;2.83;;;;;;;;;;4393037;32;20089;-67
2022/07/17 09:33:56;;;;;;;4.32;2.83;;;;;;;;;;4379874;32;20077;-66
2022/07/17 09:36:24;;;;;;;3.92;2.90;;;;;;;;;;4367679;32;20074;-66
2022/07/17 09:38:54;;;;;;;3.83;2.87;;;;;;;;;;4392316;32;20560;-66
2022/07/17 09:41:23;;;;;;;3.28;2.90;;;;;;;;;;4392923;32;20086;-67
2022/07/17 09:43:52;;;;;;;3.45;2.85;;;;;;;;;;4391960;32;20085;-66
2022/07/17 09:46:32;;;;;;;4.95;2.80;;;;;;;;;;4392165;32;20162;-66
2022/07/17 09:49:09;;;;;;;5.53;3.12;;;;;;;;;;4367622;32;20097;-65
2022/07/17 09:51:38;;;;;;;3.33;2.72;;;;;;;;;;4379872;32;20131;-66
2022/07/17 09:54:10;;;;;;;4.93;2.67;;;;;;;;;;4379329;32;20151;-66
2022/07/17 09:56:38;;;;;;;5.15;3.00;;;;;;;;;;4379806;32;20094;-66
2022/07/17 09:59:10;;;;;;;3.92;3.00;;;;;;;;;;4379374;32;20069;-66
2022/07/17 10:01:39;;;;;;;4.00;2.90;;;;;;;;;;4379688;32;20070;-65
2022/07/17 10:04:06;;;;;;;4.18;2.80;;;;;;;;;;4391949;32;20077;-65
2022/07/17 10:06:33;;;;;;;3.45;2.62;;;;;;;;;;4366885;32;20067;-66
2022/07/17 10:09:02;;;;;;;2.72;2.50;;;;;;;;;;4379304;32;20105;-65
2022/07/17 10:11:30;;;;;;;3.58;2.80;;;;;;;;;;4379465;32;20077;-66
2022/07/17 10:14:02;;;;;;;4.37;2.70;;;;;;;;;;4391901;32;20463;-66
2022/07/17 10:16:31;;;;;;;3.72;2.50;;;;;;;;;;4379470;32;20198;-66
2022/07/17 10:18:59;;;;;;;2.40;2.20;;;;;;;;;;4366761;32;20081;-67
2022/07/17 10:21:27;;;;;;;2.75;2.45;;;;;;;;;;4379226;32;20184;-67
2022/07/17 10:23:54;;;;;;;3.10;2.53;;;;;;;;;;4391794;32;20084;-66
2022/07/17 10:26:48;;;;;;;5.47;2.72;;;;;;;;;;4393225;32;20085;-67
2022/07/17 10:29:28;;;;;;;2.97;2.70;;;;;;;;;;4391678;32;20456;-66
2022/07/17 10:31:55;;;;;;;3.33;2.35;;;;;;;;;;4379489;32;20157;-66
2022/07/17 10:34:44;;;;;;;3.08;2.58;;;;;;;;;;4379045;32;20085;-66
2022/07/17 10:37:38;;;;;;;3.37;3.05;;;;;;;;;;4378952;32;20070;-65
2022/07/17 10:40:11;;;;;;;2.95;2.65;;;;;;;;;;4378738;32;20181;-66
2022/07/17 10:42:43;;;;;;;4.65;2.72;;;;;;;;;;4379424;32;20065;-67
2022/07/17 10:45:20;;;;;;;3.03;2.72;;;;;;;;;;4391886;32;20070;-66
2022/07/17 10:48:01;;;;;;;4.68;3.12;;;;;;;;;;4378558;32;20142;-66
2022/07/17 10:50:36;;;;;;;4.15;3.10;;;;;;;;;;4378920;32;20089;-66
2022/07/17 10:53:11;;;;;;;3.30;2.70;;;;;;;;;;4391910;32;20069;-66
2022/07/17 10:55:43;;;;;;;4.70;2.67;;;;;;;;;;4391536;32;20074;-66
2022/07/17 10:58:19;;;;;;;3.20;2.90;;;;;;;;;;4365860;32;20534;-66
2022/07/17 11:00:58;;;;;;;;;;;;;;;;;;4391892;32;20069;-65
2022/07/17 11:03:26;;;;;;;3.60;3.17;;;;;;;;;;4391151;32;19981;-66
2022/07/17 11:05:53;;;;;;;3.80;3.08;;;;;;;;;;4378468;32;20076;-66
2022/07/17 11:08:20;;;;;;;3.37;2.80;;;;;;;;;;4366159;32;20093;-66
2022/07/17 11:10:47;;;;;;;3.60;3.10;;;;;;;;;;4379061;32;20082;-66
2022/07/17 11:13:17;;;;;;;3.90;2.70;;;;;;;;;;4378599;32;20085;-66
2022/07/17 11:15:48;;;;;;;3.90;3.10;;;;;;;;;;4378590;32;20092;-66
2022/07/17 11:18:19;;;;;;;6.28;3.30;;;;;;;;;;4378559;32;20089;-65
2022/07/17 11:20:55;;;;;;;5.12;3.08;;;;;;;;;;4378842;32;20081;-66
2022/07/17 11:23:24;;;;;;;4.62;3.72;;;;;;;;;;4391066;32;20090;-66
2022/07/17 11:26:04;;;;;;;4.40;3.37;;;;;;;;;;4378196;32;20104;-66
2022/07/17 11:28:42;;;;;;;4.18;3.47;;;;;;;;;;4378522;32;20086;-65
2022/07/17 11:31:24;;;;;;;4.57;3.30;;;;;;;;;;4390687;32;20599;-66
2022/07/17 11:34:00;;;;;;;5.28;3.50;;;;;;;;;;4365647;32;20074;-66
2022/07/17 11:36:30;;;;;;;7.30;3.33;;;;;;;;;;4391400;32;20080;-66
2022/07/17 11:38:58;;;;;;;4.68;3.00;;;;;;;;;;4390959;32;20164;-66
2022/07/17 11:41:39;;;;;;;3.72;3.17;;;;;;;;;;4390586;32;20096;-65
2022/07/17 11:44:11;;;;;;;4.18;3.58;;;;;;;;;;4377800;32;20062;-66
2022/07/17 11:46:42;;;;;;;3.60;3.30;;;;;;;;;;4377270;32;20161;-66
2022/07/17 11:49:09;;;;;;;4.70;3.53;;;;;;;;;;4378086;32;20432;-66
2022/07/17 11:51:38;;;;;;;3.95;3.30;;;;;;;;;;4377602;32;20467;-66
2022/07/17 11:54:07;;;;;;;3.50;3.20;;;;;;;;;;4377991;32;20081;-66
2022/07/17 11:56:34;;;;;;;3.58;3.00;;;;;;;;;;4377762;32;20085;-67
2022/07/17 11:59:02;;;;;;;3.37;3.08;;;;;;;;;;4364957;32;20086;-66
2022/07/17 12:01:37;;;;;;;4.22;3.17;;;;;;;;;;4390310;32;20084;-65
2022/07/17 12:04:04;;;;;;;4.25;3.47;;;;;;;;;;4378176;32;20231;-66
2022/07/17 12:06:31;;;;;;;4.55;3.37;;;;;;;;;;4377674;32;20603;-66
2022/07/17 12:08:57;;;;;;;5.07;3.17;;;;;;;;;;4390054;32;20178;-66
2022/07/17 12:11:24;;;;;;;5.72;3.37;;;;;;;;;;4389932;32;20124;-66
2022/07/17 12:13:51;;;;;;;8.55;3.65;;;;;;;;;;4377734;32;20090;-66
2022/07/17 12:16:24;;;;;;;3.67;3.20;;;;;;;;;;4365286;32;20078;-66
2022/07/17 12:19:04;;;;;;;4.62;2.97;;;;;;;;;;4377793;32;20586;-66
2022/07/17 12:21:32;;;;;;;5.78;3.40;;;;;;;;;;4390414;32;20086;-66
2022/07/17 12:24:04;;;;;;;5.07;3.10;;;;;;;;;;4364851;32;20066;-66
2022/07/17 12:26:32;;;;;;;3.90;2.70;;;;;;;;;;4377499;32;20085;-66
2022/07/17 12:28:59;;;;;;;3.28;2.70;;;;;;;;;;4390018;32;20149;-66
2022/07/17 12:31:26;;;;;;;2.62;2.42;;;;;;;;;;4377886;32;20086;-66
2022/07/17 12:33:54;;;;;;;5.00;2.80;;;;;;;;;;4389926;32;20073;-66
2022/07/17 12:36:22;;;;;;;3.42;2.70;;;;;;;;;;4390583;32;20097;-65
2022/07/17 12:38:49;;;;;;;3.45;2.50;;;;;;;;;;4390191;32;20077;-66
2022/07/17 12:41:16;;;;;;;2.50;2.30;;;;;;;;;;4364917;32;20078;-66
2022/07/17 12:43:43;;;;;;;3.20;2.60;;;;;;;;;;4377348;32;20505;-67
2022/07/17 12:46:09;;;;;;;3.45;2.75;;;;;;;;;;4389979;32;20070;-66
2022/07/17 12:48:38;;;;;;;3.50;2.90;;;;;;;;;;4377042;32;20058;-66
2022/07/17 12:51:06;;;;;;;4.03;2.72;;;;;;;;;;4389664;32;20520;-66
2022/07/17 12:53:33;;;;;;;3.72;2.72;;;;;;;;;;4364631;32;20078;-66
2022/07/17 12:56:00;;;;;;;4.18;2.87;;;;;;;;;;4377620;32;20090;-66
2022/07/17 12:58:27;;;;;;;3.45;3.10;;;;;;;;;;4378494;32;20070;-66
2022/07/17 13:00:54;;;;;;;3.85;2.53;;;;;;;;;;4380328;32;20090;-65
2022/07/17 13:03:20;;;;;;;3.17;2.80;;;;;;;;;;4392708;32;20145;-66
2022/07/17 13:05:48;;;;;;;3.97;3.12;;;;;;;;;;4380015;32;20074;-66
2022/07/17 13:08:14;;;;;;;3.10;2.80;;;;;;;;;;4380137;32;20073;-66
2022/07/17 13:10:42;;;;;;;4.72;3.00;;;;;;;;;;4379957;32;20186;-66
2022/07/17 13:13:08;;;;;;;4.10;3.20;;;;;;;;;;4367650;32;20084;-66
2022/07/17 13:15:35;;;;;;;3.92;3.45;;;;;;;;;;4367916;32;20085;-66
2022/07/17 13:18:02;;;;;;;4.20;3.20;;;;;;;;;;4380182;32;20090;-66
2022/07/17 13:20:30;;;;;;;3.20;2.90;;;;;;;;;;4367531;32;20097;-66
2022/07/17 13:22:57;;;;;;;3.87;3.05;;;;;;;;;;4380533;32;20065;-66
2022/07/17 13:25:24;;;;;;;4.57;2.97;;;;;;;;;;4367470;32;20105;-66
2022/07/17 13:27:51;;;;;;;3.62;2.90;;;;;;;;;;4392412;32;20092;-65
2022/07/17 13:30:18;;;;;;;3.22;2.92;;;;;;;;;;4367424;32;20149;-66
2022/07/17 13:32:44;;;;;;;3.62;2.95;;;;;;;;;;4379943;32;20077;-67
2022/07/17 13:35:11;;;;;;;3.87;3.20;;;;;;;;;;4380365;32;20101;-66
2022/07/17 13:37:38;;;;;;;7.12;3.05;;;;;;;;;;4367785;32;20076;-67
2022/07/17 13:40:07;;;;;;;3.15;2.60;;;;;;;;;;4367236;32;20137;-65
2022/07/17 13:42:33;;;;;;;3.85;3.22;;;;;;;;;;4392397;32;20167;-66
2022/07/17 13:45:01;;;;;;;4.95;3.15;;;;;;;;;;4379424;32;20089;-66
2022/07/17 13:47:28;;;;;;;3.90;2.72;;;;;;;;;;4392653;32;20137;-65
2022/07/17 13:49:55;;;;;;;3.75;2.80;;;;;;;;;;4392643;32;20239;-66
2022/07/17 13:52:23;;;;;;;3.72;2.72;;;;;;;;;;4366876;32;20089;-66
2022/07/17 13:54:50;;;;;;;3.75;2.70;;;;;;;;;;4380298;32;20506;-66
2022/07/17 13:57:17;;;;;;;2.55;2.35;;;;;;;;;;4379699;32;20085;-65
2022/07/17 13:59:44;;;;;;;5.12;2.50;;;;;;;;;;4379519;32;20070;-67
2022/07/17 14:02:11;;;;;;;3.33;2.45;;;;;;;;;;4379517;32;20074;-66
2022/07/17 14:04:38;;;;;;;2.92;2.30;;;;;;;;;;4367234;32;20124;-66
2022/07/17 14:07:05;;;;;;;3.47;2.30;;;;;;;;;;4393090;32;20089;-66
2022/07/17 14:09:32;;;;;;;4.10;2.55;;;;;;;;;;4391232;32;20082;-66
2022/07/17 14:11:59;;;;;;;3.97;2.60;;;;;;;;;;4366581;32;20090;-66
2022/07/17 14:14:26;;;;;;;4.60;2.70;;;;;;;;;;4378874;32;20166;-66
2022/07/17 14:16:53;;;;;;;2.72;2.50;;;;;;;;;;4366732;32;20611;-66
2022/07/17 14:19:20;;;;;;;3.80;2.58;;;;;;;;;;4379804;32;20174;-66
2022/07/17 14:21:47;;;;;;;3.50;2.62;;;;;;;;;;4379444;32;20504;-66
2022/07/17 14:24:13;;;;;;;3.42;2.65;;;;;;;;;;4391644;32;20158;-66
2022/07/17 14:26:42;;;;;;;3.25;2.78;;;;;;;;;;4378846;32;20144;-66
2022/07/17 14:29:09;;;;;;;3.90;2.45;;;;;;;;;;4367142;32;20504;-67
2022/07/17 14:31:36;;;;;;;3.05;2.50;;;;;;;;;;4379116;32;20518;-66
2022/07/17 14:34:03;;;;;;;3.40;2.67;;;;;;;;;;4379364;32;20513;-66
2022/07/17 14:36:30;;;;;;;3.60;2.80;;;;;;;;;;4379109;32;20080;-66
2022/07/17 14:38:57;;;;;;;3.42;2.60;;;;;;;;;;4366607;32;20097;-66
2022/07/17 14:41:26;;;;;;;4.18;2.90;;;;;;;;;;4378857;32;20182;-66
2022/07/17 14:43:53;;;;;;;3.58;2.70;;;;;;;;;;4391879;32;20089;-66
2022/07/17 14:46:20;;;;;;;4.30;2.65;;;;;;;;;;4366821;32;20256;-66
2022/07/17 14:48:47;;;;;;;3.42;2.90;;;;;;;;;;4366536;32;20088;-64